TOURFACTS.DK  
Stats and Facts from Tour de France.

Tour de France 2017 starts in 5 days
  Riders   Stages   Teams   Summits   Yearly  


 
Search by year

 After:  2016 - Stage 21:
  14626 starters.
  5086 different riders.
  634 teams.
  2211 stages.
  454 restdays.
  436049.60 km.
  5622 abandonnees.


Top 3
Christopher Froome89:04:48
Romain Bardet89:08:53
Nairo Quintana89:09:09
Rafal Majka209 pt.
Thomas De Gendt130 pt.
Jarlinson Pantano ..121 pt.
Peter Sagan470 pt.
Marcel Kittel228 pt.
Michael Matthews199 pt.
Adam Yates89:09:30
Louis Meintjes89:11:46
Emanuel Buchmann89:52:28
Facts from Tour de France 2014
  |   Stages.  |   Stage winners.  |   Days in yellow  |   Average speed.  |   Route.  |   Teams.  |   All riders.  |   Rookies.  |   Withdrawls.  |  

  |   GC.  |   Polka  |   Green  |   White  |   Summits. (In tour)  |   Summits. (Points)  |   Miscellaneous.  |  

Stage 21 on 27 - 07 - 2014
         Owning:    Vincenzo Nibali      Rafal Majka      Peter Sagan      Thibaut Pinot  

Pick a stage:  1 2 3 4 5 6 7 8 9 10 11 12 13 14 15 16 17 18 19 20 21
  ÉvryChamps-Élysées | Dist: 137.50 km.
Cat: 4Côte de Briis-sous-ForgesKAZDmitriy Gruzdev1 points 

Average speed for all riders in stage:  40,949 km./hr.
    Place:Name:Team:Time:Km/h:
DEUMarcel KittelNLDTeam Giant - Shimano03:20:50  +  00:00:00=41,079 
NORAlexander KristoffRUSTeam Katusha03:20:50  +  00:00:00=41,079 
USRRamunas NavardauskasUSAGarmin Sharp03:20:50  +  00:00:00=41,079 
4 DEUAndré GreipelBELLotto-Belisol Team03:20:50  +  00:00:00=41,079 
5 AUSMark RenshawBELOmega Pharma – Quick Step03:20:50  +  00:00:00=41,079 
6 AUTBernhard EiselGBRSky Procycling03:20:50  +  00:00:00=41,079 
7 FRABryan CoquardFRATeam Europcar03:20:50  +  00:00:00=41,079 
8 ITAAlessandro PetacchiBELOmega Pharma – Quick Step03:20:50  +  00:00:00=41,079 
9 SVKPeter SaganITACannondale Pro Cycling03:20:50  +  00:00:00=41,079 
10 FRARomain FeilluFRABretagne - Séché Environnement03:20:50  +  00:00:00=41,079 
11 ITADaniele BennatiRUSTinkoff Saxo03:20:50  +  00:00:00=41,079 
12 FRAArnaud DémareFRAFDJ.fr03:20:50  +  00:00:00=41,079 
13 BELGreg Van AvermaetUSABMC Racing Team03:20:50  +  00:00:00=41,079 
14 FRAAdrien PetitFRACofidis – Solutions Crédits03:20:50  +  00:00:00=41,079 
15 BELSep VanmarckeNLDBelkin Pro Cycling03:20:50  +  00:00:00=41,079 
16 ITADaniel OssUSABMC Racing Team03:20:50  +  00:00:00=41,079 
17 ITADavide CimolaiITALampre-Merida03:20:50  +  00:00:00=41,079 
18 FRARomain BardetFRAAg2r La Mondiale03:20:54  +  00:00:04=41,065 
19 USATejay Van GarderenUSABMC Racing Team03:20:54  +  00:00:04=41,065 
20 BELJohan VansummerenUSAGarmin Sharp03:20:54  +  00:00:04=41,065 
21 DEURoger KlugeCHEIAM Cycling03:20:56  +  00:00:06=41,058 
22 FRAKévin RezaFRATeam Europcar03:20:56  +  00:00:06=41,058 
23 NZLJack BauerUSAGarmin Sharp03:20:56  +  00:00:06=41,058 
24 NLDTom VeelersNLDTeam Giant - Shimano03:20:56  +  00:00:06=41,058 
25 ITAElia VivianiITACannondale Pro Cycling03:20:59  +  00:00:09=41,048 
26 DEUJens VoigtUSATrek Factory Racing03:20:59  +  00:00:09=41,048 
27 ESPAlejandro ValverdeESPMovistar Team03:20:59  +  00:00:09=41,048 
28 FRASamuel DumoulinFRAAg2r La Mondiale03:20:59  +  00:00:09=41,048 
29 SVKPeter VelitsUSABMC Racing Team03:20:59  +  00:00:09=41,048 
30 NLDBram TankinkNLDBelkin Pro Cycling03:20:59  +  00:00:09=41,048 
31 ITAMatteo MontagutiFRAAg2r La Mondiale03:20:59  +  00:00:09=41,048 
32 FRASylvain ChavanelCHEIAM Cycling03:20:59  +  00:00:09=41,048 
33 ESPHaimar ZubeldiaUSATrek Factory Racing03:20:59  +  00:00:09=41,048 
34 FRASébastien MinardFRAAg2r La Mondiale03:20:59  +  00:00:09=41,048 
35 FRAChristophe RiblonFRAAg2r La Mondiale03:20:59  +  00:00:09=41,048 
36 FRAJean-Christophe PeraudFRAAg2r La Mondiale03:20:59  +  00:00:09=41,048 
37 JPNChristopher HornerITALampre-Merida03:20:59  +  00:00:09=41,048 
38 PRTNelson OliveiraITALampre-Merida03:20:59  +  00:00:09=41,048 
39 WALGeraint ThomasGBRSky Procycling03:20:59  +  00:00:09=41,048 
40 FRAMickael DelageFRAFDJ.fr03:21:05  +  00:00:15=41,028 
41 NLDKoen De KortNLDTeam Giant - Shimano03:21:05  +  00:00:15=41,028 
42 CHEMartin ElmigerCHEIAM Cycling03:21:05  +  00:00:15=41,028 
43 CHEMichael AlbasiniAUSOrica - GreenEDGE03:21:05  +  00:00:15=41,028 
44 FRAAnthony DelaplaceFRABretagne - Séché Environnement03:21:05  +  00:00:15=41,028 
45 FRAJulien SimonFRACofidis – Solutions Crédits03:21:05  +  00:00:15=41,028 
46 CHEMichael SchärUSABMC Racing Team03:21:05  +  00:00:15=41,028 
47 NLDBauke MollemaNLDBelkin Pro Cycling03:21:05  +  00:00:15=41,028 
48 FRAWilliam BonnetFRAFDJ.fr03:21:05  +  00:00:15=41,028 
49 NLDLars BoomNLDBelkin Pro Cycling03:21:05  +  00:00:15=41,028 
50 NLDLaurens ten DamNLDBelkin Pro Cycling03:21:05  +  00:00:15=41,028 
51 ESPMarkel IrizarUSATrek Factory Racing03:21:05  +  00:00:15=41,028 
52 ESPLuis Angel MateFRACofidis – Solutions Crédits03:21:05  +  00:00:15=41,028 
53 LUXFränk SchleckUSATrek Factory Racing03:21:05  +  00:00:15=41,028 
54 CZELeopold KönigDEUTeam NetApp – Endura03:21:05  +  00:00:15=41,028 
55 USAPeter StetinaUSABMC Racing Team03:21:05  +  00:00:15=41,028 
56 FRAThibaut PinotFRAFDJ.fr03:21:05  +  00:00:15=41,028 
57 CZEJan BártaDEUTeam NetApp – Endura03:21:05  +  00:00:15=41,028 
58 FRAPierre RollandFRATeam Europcar03:21:05  +  00:00:15=41,028 
59 ESPMikel NieveGBRSky Procycling03:21:05  +  00:00:15=41,028 
60 NLDTom DumoulinNLDTeam Giant - Shimano03:21:05  +  00:00:15=41,028 
61 ESPDavid LopezGBRSky Procycling03:21:05  +  00:00:15=41,028 
62 FRAJean-Marc BideauFRABretagne - Séché Environnement03:21:05  +  00:00:15=41,028 
63 ITAMatteo TrentinBELOmega Pharma – Quick Step03:21:05  +  00:00:15=41,028 
64 FRAJérémy RoyFRAFDJ.fr03:21:05  +  00:00:15=41,028 
65 ESPImanol ErvitiESPMovistar Team03:21:05  +  00:00:15=41,028 
66 FRACyril GautierFRATeam Europcar03:21:05  +  00:00:15=41,028 
67 RUSYury TrofimovRUSTeam Katusha03:21:05  +  00:00:15=41,028 
68 CHEGregory RastUSATrek Factory Racing03:21:14  +  00:00:24=40,997 
69 DNKMichael MørkøvRUSTinkoff Saxo03:21:14  +  00:00:24=40,997 
70 USRGatis SmukulisRUSTeam Katusha03:21:14  +  00:00:24=40,997 
71 ESPJon Izaguirre InsaustiESPMovistar Team03:21:14  +  00:00:24=40,997 
72 UKRAndriy GrivkoKAZAstana Pro Team03:21:14  +  00:00:24=40,997 
73 FRAMatthieu LadagnousFRAFDJ.fr03:21:14  +  00:00:24=40,997 
74 BELJürgen RoelandtsBELLotto-Belisol Team03:21:14  +  00:00:24=40,997 
75 NLDLieuwe WestraKAZAstana Pro Team03:21:14  +  00:00:24=40,997 
76 ITAMarco MarcatoITACannondale Pro Cycling03:21:14  +  00:00:24=40,997 
77 FRAFlorian GuillouFRABretagne - Séché Environnement03:21:14  +  00:00:24=40,997 
78 ITAMichele ScarponiKAZAstana Pro Team03:21:14  +  00:00:24=40,997 
79 FRABrice FeilluFRABretagne - Séché Environnement03:21:14  +  00:00:24=40,997 
80 ITAAlessandro VanottiKAZAstana Pro Team03:21:14  +  00:00:24=40,997 
81 ITAVincenzo NibaliKAZAstana Pro Team03:21:14  +  00:00:24=40,997 
82 FRABenoît JarrierFRABretagne - Séché Environnement03:21:14  +  00:00:24=40,997 
83 CHEMarcel WyssCHEIAM Cycling03:21:14  +  00:00:24=40,997 
84 LUXBen GastauerFRAAg2r La Mondiale03:21:14  +  00:00:24=40,997 
85 USAMatthew BuscheUSATrek Factory Racing03:21:14  +  00:00:24=40,997 
86 POLMichal GolasBELOmega Pharma – Quick Step03:21:14  +  00:00:24=40,997 
87 SVNKristjan KorenITACannondale Pro Cycling03:21:14  +  00:00:24=40,997 
88 HRVKristijan DurasekITALampre-Merida03:21:14  +  00:00:24=40,997 
89 COLJosé SerpaITALampre-Merida03:21:14  +  00:00:24=40,997 
90 FRAMickaël CherelFRAAg2r La Mondiale03:21:14  +  00:00:24=40,997 
91 POLBartosz HuzarskiDEUTeam NetApp – Endura03:21:14  +  00:00:24=40,997 
92 BELJurgen Van Den BroeckBELLotto-Belisol Team03:21:14  +  00:00:24=40,997 
93 POLRafal MajkaRUSTinkoff Saxo03:21:14  +  00:00:24=40,997 
94 NLDSteven KruijswijkNLDBelkin Pro Cycling03:21:14  +  00:00:24=40,997 
95 BELJens KeukeleireAUSOrica - GreenEDGE03:21:14  +  00:00:24=40,997 
96 NLDTom-Jelte SlagterUSAGarmin Sharp03:21:14  +  00:00:24=40,997 
97 ESPRubén PlazaESPMovistar Team03:21:14  +  00:00:24=40,997 
98 POLMaciej BodnarITACannondale Pro Cycling03:21:14  +  00:00:24=40,997 
99 DEUMarcel SiebergBELLotto-Belisol Team03:21:14  +  00:00:24=40,997 
100 KAZDmitriy GruzdevKAZAstana Pro Team03:21:14  +  00:00:24=40,997 
101 CHEJakob FuglsangKAZAstana Pro Team03:21:14  +  00:00:24=40,997 
102 FRAJohn GadretESPMovistar Team03:21:14  +  00:00:24=40,997 
103 USRTanel KangertKAZAstana Pro Team03:21:14  +  00:00:24=40,997 
104 PRTSergio PaulinhoRUSTinkoff Saxo03:21:14  +  00:00:24=40,997 
105 NLDSebastian LangeveldUSAGarmin Sharp03:21:14  +  00:00:24=40,997 
106 DEUAndreas SchillingerDEUTeam NetApp – Endura03:21:14  +  00:00:24=40,997 
158 AUSZakkari DempsterDEUTeam NetApp – Endura03:21:14  +  00:00:24=40,997 
159 FRAFlorian VachonFRABretagne - Séché Environnement03:21:14  +  00:00:24=40,997 
107 AUSMichael RogersRUSTinkoff Saxo03:21:24  +  00:00:34=40,963 
108 DEUJohn DegenkolbNLDTeam Giant - Shimano03:21:26  +  00:00:36=40,956 
109 DEUTony MartinBELOmega Pharma – Quick Step03:21:29  +  00:00:39=40,946 
110 NLDNiki TerpstraBELOmega Pharma – Quick Step03:21:29  +  00:00:39=40,946 
111 FRAPerrig QuemeneurFRATeam Europcar03:21:31  +  00:00:41=40,940 
112 ITAMatteo TosattoRUSTinkoff Saxo03:21:31  +  00:00:41=40,940 
113 FRANicolas RocheRUSTinkoff Saxo03:21:31  +  00:00:41=40,940 
114 BELJan BakelantsBELOmega Pharma – Quick Step03:21:31  +  00:00:41=40,940 
115 FRAYohann GèneFRATeam Europcar03:21:35  +  00:00:45=40,926 
116 PRTTiago PintoDEUTeam NetApp – Endura03:21:37  +  00:00:47=40,919 
117 DEUPaul VossDEUTeam NetApp – Endura03:21:37  +  00:00:47=40,919 
118 JPNYukiya ArashiroFRATeam Europcar03:21:37  +  00:00:47=40,919 
119 FRAThomas VoecklerFRATeam Europcar03:21:45  +  00:00:55=40,892 
120 ITAGiovanni ViscontiESPMovistar Team03:21:45  +  00:00:55=40,892 
121 PRTJosé João PimentaDEUTeam NetApp – Endura03:21:47  +  00:00:57=40,885 
122 AUSRichie PorteGBRSky Procycling03:21:47  +  00:00:57=40,885 
123 FRAArmindo FonsecaFRABretagne - Séché Environnement03:21:47  +  00:00:57=40,885 
124 NLDAlbert TimmerNLDTeam Giant - Shimano03:21:47  +  00:00:57=40,885 
125 CHESébastien ReichenbachCHEIAM Cycling03:21:47  +  00:00:57=40,885 
126 NLDRoy CurversNLDTeam Giant - Shimano03:21:47  +  00:00:57=40,885 
127 USAAlex HowesUSAGarmin Sharp03:21:47  +  00:00:57=40,885 
128 USABenjamin KingUSAGarmin Sharp03:21:47  +  00:00:57=40,885 
129 FRAAmaël MoinardUSABMC Racing Team03:21:47  +  00:00:57=40,885 
130 ESPBeñat IntxaustiESPMovistar Team03:21:47  +  00:00:57=40,885 
131 KAZMaxim IglinskiyKAZAstana Pro Team03:21:47  +  00:00:57=40,885 
132 FRANicolas EdetFRACofidis – Solutions Crédits03:21:52  +  00:01:02=40,869 
133 FRACédric PineauFRAFDJ.fr03:21:52  +  00:01:02=40,869 
134 AUSAdam HansenBELLotto-Belisol Team03:21:54  +  00:01:04=40,862 
135 ITAFabio SabatiniITACannondale Pro Cycling03:21:56  +  00:01:06=40,855 
136 DEUMarcus BurghardtUSABMC Racing Team03:21:58  +  00:01:08=40,848 
137 ITALuca PaoliniRUSTeam Katusha03:22:02  +  00:01:12=40,835 
138 ITAAlessandro De MarchiITACannondale Pro Cycling03:22:07  +  00:01:17=40,818 
139 FRAJean-Marc MarinoITACannondale Pro Cycling03:22:07  +  00:01:17=40,818 
140 AUSSimon ClarkeAUSOrica - GreenEDGE03:22:10  +  00:01:20=40,808 
141 AUSLuke DurbridgeAUSOrica - GreenEDGE03:22:10  +  00:01:20=40,808 
142 CANChristian MeierAUSOrica - GreenEDGE03:22:10  +  00:01:20=40,808 
143 USADanny PateGBRSky Procycling03:22:10  +  00:01:20=40,808 
144 CANSvein TuftAUSOrica - GreenEDGE03:22:10  +  00:01:20=40,808 
145 FRARudy MolardFRACofidis – Solutions Crédits03:22:10  +  00:01:20=40,808 
146 ESPJoaquim RodriguezRUSTeam Katusha03:22:10  +  00:01:20=40,808 
147 RUSVladimir IsaichevRUSTeam Katusha03:22:10  +  00:01:20=40,808 
148 FRATony GallopinBELLotto-Belisol Team03:22:10  +  00:01:20=40,808 
149 FRAJérôme PineauCHEIAM Cycling03:22:10  +  00:01:20=40,808 
150 USRRein TaaramäeFRACofidis – Solutions Crédits03:22:10  +  00:01:20=40,808 
151 FRAArnaud GérardFRABretagne - Séché Environnement03:22:10  +  00:01:20=40,808 
152 BELMaarten WynantsNLDBelkin Pro Cycling03:22:10  +  00:01:20=40,808 
153 NLDTom LeezerNLDBelkin Pro Cycling03:22:10  +  00:01:20=40,808 
154 FRAArnold JeannessonFRAFDJ.fr03:22:10  +  00:01:20=40,808 
155 FRACyril LemoineFRACofidis – Solutions Crédits03:22:16  +  00:01:26=40,788 
156 POLMichal KwiatkowskiBELOmega Pharma – Quick Step03:22:20  +  00:01:30=40,774 
157 DNKLars BakBELLotto-Belisol Team03:22:31  +  00:01:41=40,737 
160 ESPJesus HerradaESPMovistar Team03:22:49  +  00:01:59=40,677 
161 BLRVasil KiryienkaGBRSky Procycling03:24:29  +  00:03:39=40,346 
162 FRABlel KadriFRAAg2r La Mondiale03:24:55  +  00:04:05=40,260 
163 FRAAlexandre PichotFRATeam Europcar03:25:23  +  00:04:33=40,169 
164 CHNCheng JiNLDTeam Giant - Shimano03:30:15  +  00:09:25=39,239 


Todays birthdays.

1899  Ardito Bresciani
1908  Renato Scorticati
1927  Marcel Huber
1941  Roger Cooreman
1942  Luis Santamarina
1952  Ferdi Van den Haute
1956  Graziano Salvietti
1961  Massimo Ghirotto
1963  Thierry Marie
1968  Dominik Krieger
1979  Sébastien Joly
1981  Yohann Gène
1982  William Bonnet
1986  Marcel Wyss
1987  Rafael Valls Ferri
1988  Egor Silin